Chancellor, South Dakota
Current Conditions -  °F | °C
As of 2:17 PM on Monday 22 Dec 2014 (Local Time) from KFSD Reporting Station
Drizzle Drizzle  
Wind Chill: 39°   Ceiling: 400
Heat Index: 39°   Visibility: 0.75mi
Dew Point: 38°   Wind: 0mph
Humidity: 96%   Direction: NA
Pressure: 29.39"   Gusts: NA
Location:  43.37°N, 96.99°W
Report Text: KFSD 222017Z 00000KT 3/4SM R03/4000V5000FT -DZ BR BKN004 OVC010 04/03 A2939 RMK AO2 P0000 T00390033
Loading
Personal Weather Stations






























Interactive Weather Map New forecast layout! Learn more

10-Day Weather Forecast

Advertisements
Track Severe Weather on mobile